Time;durP1;ratioP1;P1;durP2;ratioP2;P2;SDS_P1;SDS_P2;PMS_P1;PMS_P2;Temp;Humidity;BMP_temperature;BMP_pressure;BME280_temperature;BME280_humidity;BME280_pressure;Samples;Min_cycle;Max_cycle;Signal;HPM_P1;HPM_P2
2024/02/09 00:00:10;;;;;;;11.65;8.18;;;12.60;93.80;;;;;;5015216;28;20037;-57
2024/02/09 00:02:42;;;;;;;17.17;10.35;;;12.60;94.00;;;;;;5013103;28;20058;-57
2024/02/09 00:05:12;;;;;;;20.58;13.90;;;12.60;93.80;;;;;;5015021;28;20075;-56
2024/02/09 00:07:38;;;;;;;25.17;16.17;;;12.60;93.80;;;;;;5014907;28;20057;-56
2024/02/09 00:10:04;;;;;;;49.83;32.13;;;12.50;93.80;;;;;;5015109;28;20034;-56
2024/02/09 00:12:30;;;;;;;48.88;31.30;;;12.50;93.90;;;;;;5014905;28;20026;-57
2024/02/09 00:14:59;;;;;;;30.83;19.80;;;12.60;93.70;;;;;;5015021;28;20083;-56
2024/02/09 00:17:25;;;;;;;15.38;10.75;;;12.70;93.60;;;;;;5029339;28;20401;-56
2024/02/09 00:19:50;;;;;;;16.90;10.35;;;12.70;93.60;;;;;;5014778;28;20026;-57
2024/02/09 00:22:16;;;;;;;20.50;13.68;;;12.70;93.50;;;;;;5014707;28;20070;-57
2024/02/09 00:24:43;;;;;;;19.58;11.70;;;12.70;93.60;;;;;;5014768;28;20058;-56
2024/02/09 00:27:09;;;;;;;16.13;10.60;;;12.70;93.60;;;;;;5012593;28;20030;-56
2024/02/09 00:29:35;;;;;;;13.40;8.20;;;12.70;93.70;;;;;;5014592;28;20398;-56
2024/02/09 00:32:04;;;;;;;10.15;6.50;;;12.80;93.70;;;;;;5014581;28;20033;-55
2024/02/09 00:34:33;;;;;;;10.98;7.30;;;12.80;93.60;;;;;;5014551;28;20037;-56
2024/02/09 00:37:00;;;;;;;14.40;9.00;;;12.90;93.40;;;;;;5014359;28;20041;-57
2024/02/09 00:39:27;;;;;;;36.58;11.68;;;12.90;93.30;;;;;;5013096;28;20037;-56
2024/02/09 00:41:53;;;;;;;33.00;13.23;;;12.80;93.00;;;;;;5014489;28;20606;-56
2024/02/09 00:44:18;;;;;;;22.83;10.15;;;12.70;93.10;;;;;;5014414;28;20045;-56
2024/02/09 00:46:48;;;;;;;11.27;8.25;;;12.80;93.10;;;;;;5014403;28;20667;-56
2024/02/09 00:49:14;;;;;;;16.92;9.43;;;12.70;93.50;;;;;;5014322;28;20037;-56
2024/02/09 00:51:40;;;;;;;19.95;12.70;;;12.60;93.70;;;;;;5014189;28;20029;-56
2024/02/09 00:54:06;;;;;;;24.05;14.95;;;;;;;;;;5012294;28;20069;-56
2024/02/09 00:56:33;;;;;;;22.30;13.65;;;;;;;;;;5014217;28;20084;-56
2024/02/09 00:59:01;;;;;;;16.58;10.70;;;;;;;;;;5014030;28;20045;-56
2024/02/09 01:01:28;;;;;;;17.52;11.20;;;;;;;;;;5014002;28;20038;-56
2024/02/09 01:03:54;;;;;;;16.35;9.38;;;;;;;;;;5014118;28;20045;-56
2024/02/09 01:06:21;;;;;;;15.35;8.32;;;;;;;;;;5011885;28;20038;-56
2024/02/09 01:08:48;;;;;;;11.45;6.97;;;;;;;;;;5013660;28;20402;-57
2024/02/09 01:11:16;;;;;;;11.75;7.63;;;;;;;;;;5013931;28;20029;-57
2024/02/09 02:46:30;;;;;;;8.60;5.20;;;9.50;99.90;;;;;;5011666;28;20038;-55
2024/02/09 03:05:29;;;;;;;9.77;5.45;;;9.70;99.90;;;;;;4997210;28;20045;-56
2024/02/09 03:07:58;;;;;;;10.43;5.32;;;9.40;99.90;;;;;;4973887;28;1157226;-57
2024/02/09 03:10:24;;;;;;;9.20;6.03;;;9.30;99.90;;;;;;5015330;28;20072;-57
2024/02/09 03:12:51;;;;;;;10.88;6.40;;;9.30;99.90;;;;;;4996428;28;20466;-57
2024/02/09 03:15:19;;;;;;;10.02;6.10;;;9.30;99.90;;;;;;4996551;28;20146;-56
2024/02/09 03:17:49;;;;;;;9.80;6.07;;;9.10;99.90;;;;;;5010446;28;20044;-56
2024/02/09 03:20:14;;;;;;;8.02;5.72;;;9.00;99.90;;;;;;4996568;28;20038;-56
2024/02/09 03:22:41;;;;;;;11.20;5.35;;;9.00;99.90;;;;;;5008527;28;20482;-56
2024/02/09 03:25:08;;;;;;;10.77;5.40;;;8.80;99.90;;;;;;5015807;28;20125;-56
2024/02/09 03:27:35;;;;;;;11.93;6.28;;;8.80;99.90;;;;;;4997570;28;20596;-56
2024/02/09 03:30:02;;;;;;;7.18;4.63;;;8.80;99.90;;;;;;5027542;28;20497;-56
2024/02/09 03:32:29;;;;;;;6.95;3.88;;;8.90;99.90;;;;;;5013305;28;20042;-56
2024/02/09 03:34:59;;;;;;;6.70;4.97;;;9.00;99.90;;;;;;5013372;28;20038;-56
2024/02/09 03:37:29;;;;;;;4.50;3.15;;;9.10;99.90;;;;;;5013325;28;20069;-56
2024/02/09 03:39:55;;;;;;;6.03;3.53;;;9.10;99.90;;;;;;5013267;28;20040;-56
2024/02/09 03:42:23;;;;;;;5.85;3.65;;;9.20;99.90;;;;;;5013246;28;20064;-56
2024/02/09 03:44:49;;;;;;;7.32;4.18;;;9.30;99.90;;;;;;5012736;28;20049;-55
2024/02/09 03:47:19;;;;;;;5.57;4.05;;;9.40;99.90;;;;;;5012908;28;20038;-56
2024/02/09 03:49:49;;;;;;;6.97;3.83;;;9.50;99.90;;;;;;5013125;28;20044;-56
2024/02/09 03:52:15;;;;;;;6.55;3.50;;;9.50;99.90;;;;;;5012945;28;20049;-56
2024/02/09 03:54:41;;;;;;;9.07;3.88;;;9.70;99.90;;;;;;5013174;28;20124;-55
2024/02/09 03:57:07;;;;;;;6.30;4.50;;;9.70;99.90;;;;;;5012869;28;20081;-56
2024/02/09 03:59:33;;;;;;;4.88;3.40;;;9.70;99.90;;;;;;4995131;28;20037;-55
2024/02/09 04:02:06;;;;;;;6.03;3.67;;;9.70;99.90;;;;;;5012758;28;20517;-57
2024/02/09 04:04:32;;;;;;;6.38;3.88;;;9.70;99.90;;;;;;5014923;28;20046;-56
2024/02/09 04:06:58;;;;;;;6.03;3.58;;;9.60;99.90;;;;;;5014890;28;20394;-56
2024/02/09 04:09:24;;;;;;;8.68;4.03;;;9.50;99.90;;;;;;5014780;28;20397;-56
2024/02/09 04:11:50;;;;;;;9.65;6.88;;;9.50;99.90;;;;;;5014879;28;20040;-56
2024/02/09 04:14:16;;;;;;;13.63;8.23;;;9.50;99.90;;;;;;5014921;28;20069;-55
2024/02/09 04:16:43;;;;;;;10.85;7.03;;;9.50;99.90;;;;;;5015022;28;20049;-56
2024/02/09 04:19:08;;;;;;;9.15;5.72;;;9.30;99.90;;;;;;5014881;28;20029;-57
2024/02/09 04:21:34;;;;;;;9.43;5.22;;;9.30;99.90;;;;;;5014654;28;20050;-56
2024/02/09 04:24:00;;;;;;;10.23;5.28;;;9.20;99.90;;;;;;5029311;28;20080;-56
2024/02/09 04:26:26;;;;;;;7.18;3.70;;;9.20;99.90;;;;;;5014749;28;20030;-56
2024/02/09 04:28:54;;;;;;;7.40;3.97;;;9.10;99.90;;;;;;5014692;28;20366;-56
2024/02/09 04:31:20;;;;;;;6.32;4.00;;;9.20;99.90;;;;;;5014618;28;20041;-56
2024/02/09 04:33:46;;;;;;;6.80;4.18;;;9.10;99.90;;;;;;5014691;28;20026;-56
2024/02/09 04:36:11;;;;;;;6.68;4.18;;;9.10;99.90;;;;;;5014491;28;20042;-57
2024/02/09 04:38:40;;;;;;;10.68;5.72;;;9.10;99.90;;;;;;5014538;28;20065;-56
2024/02/09 04:41:07;;;;;;;12.13;7.95;;;9.10;99.90;;;;;;5014444;28;20037;-55
2024/02/09 04:43:33;;;;;;;9.05;5.03;;;9.10;99.90;;;;;;5014464;28;20504;-56
2024/02/09 04:45:59;;;;;;;10.43;7.05;;;9.10;99.90;;;;;;5014379;28;20034;-57
2024/02/09 04:48:25;;;;;;;11.50;7.55;;;9.20;99.90;;;;;;5014266;28;20038;-57
2024/02/09 04:50:50;;;;;;;11.68;7.97;;;9.30;99.90;;;;;;5014370;28;20030;-56
2024/02/09 04:53:18;;;;;;;8.10;5.72;;;9.30;99.90;;;;;;5014187;28;20037;-56
2024/02/09 04:55:44;;;;;;;6.85;3.90;;;9.30;99.90;;;;;;5014092;28;20034;-56
2024/02/09 04:58:10;;;;;;;4.07;2.97;;;9.30;99.90;;;;;;5014007;28;20042;-55
2024/02/09 05:00:35;;;;;;;4.20;3.13;;;9.30;99.90;;;;;;5014119;28;20041;-56
2024/02/09 05:03:03;;;;;;;7.07;3.47;;;9.40;99.90;;;;;;5014020;28;20152;-56
2024/02/09 05:05:32;;;;;;;5.38;3.47;;;9.50;99.90;;;;;;5013622;28;20386;-56
2024/02/09 05:07:59;;;;;;;5.97;2.75;;;9.60;99.90;;;;;;5013823;28;20058;-57
2024/02/09 05:10:24;;;;;;;5.97;2.90;;;9.60;99.90;;;;;;5013541;28;20490;-55
2024/02/09 05:12:52;;;;;;;3.83;2.60;;;9.50;99.90;;;;;;5013456;28;20022;-56
2024/02/09 05:15:18;;;;;;;5.22;3.58;;;9.50;99.90;;;;;;5013188;28;20045;-56
2024/02/09 05:17:44;;;;;;;3.00;2.10;;;9.50;99.90;;;;;;5013599;28;20074;-56
2024/02/09 05:20:13;;;;;;;6.07;2.13;;;9.40;99.90;;;;;;5013121;28;20026;-56
2024/02/09 05:22:39;;;;;;;4.50;3.15;;;9.40;99.90;;;;;;5010370;28;20060;-55
2024/02/09 05:25:05;;;;;;;4.90;2.90;;;9.50;99.90;;;;;;5013761;28;20030;-56
2024/02/09 05:27:32;;;;;;;6.70;3.38;;;9.50;99.90;;;;;;4994851;28;20068;-55
2024/02/09 05:29:58;;;;;;;4.80;2.55;;;9.60;99.90;;;;;;5012378;28;20401;-55
2024/02/09 05:32:24;;;;;;;4.95;2.50;;;9.70;99.90;;;;;;5012183;28;20041;-56
2024/02/09 05:34:51;;;;;;;4.60;2.58;;;9.80;99.90;;;;;;5013384;28;20116;-56
2024/02/09 05:37:17;;;;;;;5.03;2.50;;;9.90;99.90;;;;;;5011975;28;20486;-55
2024/02/09 05:39:45;;;;;;;5.28;3.38;;;10.00;99.90;;;;;;5012986;28;20040;-56
2024/02/09 05:42:10;;;;;;;6.70;2.97;;;10.10;99.90;;;;;;5013245;28;20071;-55
2024/02/09 05:44:36;;;;;;;6.55;3.45;;;10.10;99.90;;;;;;5012946;28;20497;-56
2024/02/09 05:47:02;;;;;;;5.93;2.95;;;10.00;99.90;;;;;;5026973;28;20124;-55
2024/02/09 05:49:28;;;;;;;5.97;3.78;;;9.90;99.90;;;;;;5010532;28;20041;-56
2024/02/09 05:51:56;;;;;;;4.50;2.70;;;9.90;99.90;;;;;;5011072;28;20114;-57
2024/02/09 05:54:22;;;;;;;9.75;2.78;;;9.70;99.90;;;;;;5012277;28;20034;-56
2024/02/09 05:56:48;;;;;;;6.78;3.50;;;9.70;99.90;;;;;;5010953;28;20052;-56
2024/02/09 05:59:15;;;;;;;8.73;5.50;;;9.80;99.90;;;;;;5012702;28;20036;-56
2024/02/09 06:01:41;;;;;;;7.10;3.92;;;9.90;99.90;;;;;;5014027;28;20034;-57
2024/02/09 06:04:07;;;;;;;7.07;4.30;;;9.70;99.90;;;;;;5013991;28;20041;-57
2024/02/09 06:06:32;;;;;;;5.00;2.72;;;9.70;99.90;;;;;;5012517;28;20196;-56
2024/02/09 06:09:01;;;;;;;9.68;4.85;;;9.60;99.90;;;;;;5013473;28;20133;-55
2024/02/09 06:11:27;;;;;;;28.10;15.80;;;9.60;99.90;;;;;;5010459;28;20044;-54
2024/02/09 06:13:52;;;;;;;9.68;2.78;;;9.70;99.90;;;;;;5005548;28;20030;-55
2024/02/09 06:16:20;;;;;;;16.40;7.32;;;9.70;99.90;;;;;;5004648;28;20037;-55
2024/02/09 06:18:49;;;;;;;7.32;4.38;;;9.70;99.90;;;;;;4996259;28;20034;-55
2024/02/09 06:21:16;;;;;;;6.80;4.28;;;9.70;99.90;;;;;;5006518;28;20498;-55
2024/02/09 06:23:44;;;;;;;11.80;9.02;;;9.70;99.90;;;;;;5002871;28;20411;-55
2024/02/09 06:26:10;;;;;;;5.45;3.67;;;10.00;99.90;;;;;;5012495;28;20041;-56
2024/02/09 06:28:36;;;;;;;12.43;6.88;;;10.10;99.90;;;;;;5011819;28;20029;-55
2024/02/09 06:31:02;;;;;;;7.05;4.60;;;10.10;99.90;;;;;;5012084;28;20380;-55
2024/02/09 06:33:28;;;;;;;6.78;3.97;;;9.90;99.90;;;;;;5012924;28;20444;-55
2024/02/09 06:35:54;;;;;;;10.52;5.97;;;10.00;99.90;;;;;;5010232;28;20121;-56
2024/02/09 06:38:20;;;;;;;13.90;8.52;;;10.10;99.90;;;;;;5005377;28;20100;-55
2024/02/09 06:40:46;;;;;;;12.10;6.55;;;10.20;99.90;;;;;;5007499;28;20489;-55
2024/02/09 06:43:15;;;;;;;11.45;5.88;;;10.30;99.90;;;;;;5012859;28;20034;-55
2024/02/09 06:45:41;;;;;;;8.32;3.22;;;10.30;99.90;;;;;;5013573;28;20126;-56
2024/02/09 06:48:07;;;;;;;5.45;3.60;;;10.30;99.90;;;;;;5012174;28;20026;-56
2024/02/09 06:50:34;;;;;;;10.25;5.10;;;10.30;99.90;;;;;;5008298;28;20390;-55
2024/02/09 06:53:01;;;;;;;6.30;3.78;;;10.50;99.90;;;;;;5013544;28;20026;-55
2024/02/09 06:55:27;;;;;;;9.95;4.10;;;10.60;99.90;;;;;;5013720;28;20040;-55
2024/02/09 06:57:53;;;;;;;10.82;6.70;;;10.70;99.90;;;;;;5013485;28;20037;-55
2024/02/09 07:00:19;;;;;;;14.23;9.25;;;11.10;99.90;;;;;;5013526;28;20041;-55
2024/02/09 07:02:46;;;;;;;9.55;5.60;;;11.60;99.90;;;;;;5028057;28;20057;-55
2024/02/09 07:05:14;;;;;;;12.77;7.03;;;11.70;99.70;;;;;;5013441;28;20061;-55
2024/02/09 07:07:47;;;;;;;9.63;4.97;;;11.70;99.50;;;;;;5013063;28;20062;-55
2024/02/09 07:10:14;;;;;;;11.10;6.57;;;11.90;99.00;;;;;;5013490;28;20037;-56
2024/02/09 07:12:40;;;;;;;9.25;6.13;;;12.20;98.70;;;;;;5013254;28;20121;-55
2024/02/09 07:15:06;;;;;;;9.27;5.78;;;11.90;98.60;;;;;;5013334;28;20054;-55
2024/02/09 07:17:34;;;;;;;8.00;4.57;;;11.80;99.20;;;;;;5013599;28;20083;-55
2024/02/09 07:20:00;;;;;;;11.05;6.72;;;11.70;99.70;;;;;;5013479;28;20520;-56
2024/02/09 07:22:26;;;;;;;11.57;5.68;;;11.70;99.90;;;;;;5013167;28;20046;-55
2024/02/09 07:24:52;;;;;;;4.97;3.88;;;11.70;99.90;;;;;;5013214;28;20149;-55
2024/02/09 07:27:18;;;;;;;4.53;3.13;;;11.60;99.90;;;;;;5013465;28;20056;-55
2024/02/09 07:29:47;;;;;;;6.03;3.28;;;11.60;99.90;;;;;;5013261;28;20026;-56
2024/02/09 07:32:13;;;;;;;7.65;4.10;;;11.90;99.50;;;;;;5013242;28;20040;-55
2024/02/09 07:34:39;;;;;;;8.07;5.70;;;12.10;99.40;;;;;;5013144;28;20030;-56
2024/02/09 07:37:05;;;;;;;9.15;4.90;;;;;;;;;;5013104;28;20470;-56
2024/02/09 07:39:33;;;;;;;5.70;4.28;;;12.30;98.60;;;;;;5013162;28;20030;-55
2024/02/09 07:42:00;;;;;;;9.38;4.28;;;12.30;98.40;;;;;;5013124;28;20409;-55
2024/02/09 07:44:27;;;;;;;6.65;5.35;;;12.40;98.40;;;;;;5013496;28;20029;-55
2024/02/09 07:46:55;;;;;;;6.25;4.45;;;12.60;98.50;;;;;;5016648;28;20044;-56
2024/02/09 07:49:24;;;;;;;6.82;3.97;;;13.00;99.90;;;;;;5016762;28;20026;-55
2024/02/09 07:51:50;;;;;;;7.72;4.50;;;13.50;97.10;;;;;;5016696;28;20030;-56
2024/02/09 07:54:17;;;;;;;7.70;4.03;;;;;;;;;;5016585;28;20108;-56
2024/02/09 07:56:43;;;;;;;10.27;4.60;;;14.10;94.90;;;;;;5016469;28;20041;-55
2024/02/09 07:59:08;;;;;;;10.18;4.22;;;14.10;95.10;;;;;;5016666;28;20033;-56
2024/02/09 08:01:35;;;;;;;7.05;4.60;;;13.90;95.00;;;;;;5016503;28;20093;-55
2024/02/09 08:04:01;;;;;;;7.30;4.43;;;13.90;95.20;;;;;;5016522;28;20195;-56
2024/02/09 08:06:28;;;;;;;8.52;5.28;;;13.80;95.30;;;;;;5031042;28;20045;-55
2024/02/09 08:08:54;;;;;;;11.02;5.63;;;13.80;95.70;;;;;;5016210;28;20060;-55
2024/02/09 08:11:21;;;;;;;12.43;5.10;;;13.90;95.90;;;;;;5016248;28;20030;-55
2024/02/09 08:13:50;;;;;;;9.63;5.35;;;13.90;96.10;;;;;;5016292;28;20046;-55
2024/02/09 08:16:25;;;;;;;8.35;4.75;;;13.70;95.70;;;;;;5016311;28;20038;-55
2024/02/09 08:18:52;;;;;;;9.95;5.47;;;13.60;96.20;;;;;;5016055;28;20049;-56
2024/02/09 08:21:19;;;;;;;14.35;7.18;;;13.80;96.20;;;;;;5017068;28;20056;-55
2024/02/09 08:23:45;;;;;;;7.95;4.95;;;;;;;;;;5016157;28;20057;-56
2024/02/09 08:26:11;;;;;;;9.30;5.57;;;14.20;95.80;;;;;;5030810;28;20041;-55
2024/02/09 08:28:44;;;;;;;9.15;5.55;;;14.50;95.60;;;;;;5016169;28;20030;-55
2024/02/09 08:31:16;;;;;;;9.65;6.22;;;;;;;;;;5015821;28;20037;-55
2024/02/09 08:33:43;;;;;;;8.55;6.63;;;;;;;;;;5015899;28;20037;-55
2024/02/09 08:36:12;;;;;;;10.32;6.50;;;17.10;93.90;;;;;;5015729;28;20121;-55
2024/02/09 08:38:38;;;;;;;10.75;5.93;;;17.70;92.60;;;;;;5013575;28;20541;-55
2024/02/09 08:41:07;;;;;;;9.95;5.78;;;;;;;;;;5013506;28;20108;-55
2024/02/09 08:43:34;;;;;;;11.00;6.18;;;;;;;;;;5013733;28;20576;-55
2024/02/09 08:46:00;;;;;;;9.73;5.88;;;19.30;99.90;;;;;;5013491;28;20070;-55
2024/02/09 08:48:26;;;;;;;9.98;5.93;;;;;;;;;;5030198;28;20062;-55
2024/02/09 08:50:51;;;;;;;9.43;6.00;;;20.90;87.90;;;;;;5013488;28;20275;-54
2024/02/09 08:53:17;;;;;;;9.25;6.22;;;21.10;87.00;;;;;;5013520;28;20077;-55
2024/02/09 08:55:43;;;;;;;10.13;6.63;;;;;;;;;;5012762;28;20525;-54
2024/02/09 08:58:09;;;;;;;17.33;11.35;;;23.30;81.80;;;;;;5012882;28;20539;-54
2024/02/09 09:00:35;;;;;;;12.68;9.48;;;22.40;80.90;;;;;;5012770;28;20038;-54
2024/02/09 09:03:01;;;;;;;13.15;8.93;;;23.20;81.20;;;;;;5012959;28;20038;-54
2024/02/09 09:05:28;;;;;;;11.27;6.88;;;;;;;;;;5013160;28;20050;-54
2024/02/09 09:07:54;;;;;;;8.65;6.40;;;25.00;78.80;;;;;;5011071;28;20054;-53
2024/02/09 09:10:20;;;;;;;10.38;6.78;;;24.10;77.20;;;;;;5024556;28;20077;-52
2024/02/09 09:12:46;;;;;;;8.38;6.65;;;;;;;;;;5011868;28;20034;-53
2024/02/09 09:15:13;;;;;;;10.38;6.60;;;25.10;97.90;;;;;;5014302;28;20029;-52
2024/02/09 09:17:39;;;;;;;9.45;5.80;;;24.90;76.20;;;;;;5013915;28;20057;-52
2024/02/09 09:20:06;;;;;;;10.88;7.28;;;;;;;;;;5013571;28;20033;-53
2024/02/09 09:22:32;;;;;;;10.20;6.30;;;26.40;75.80;;;;;;5013581;28;20034;-52
2024/02/09 09:24:57;;;;;;;9.00;5.75;;;26.10;73.90;;;;;;5014306;28;20037;-53
2024/02/09 09:27:23;;;;;;;8.02;5.57;;;25.90;74.10;;;;;;5013962;28;20054;-54
2024/02/09 09:29:52;;;;;;;9.82;5.93;;;24.90;74.00;;;;;;5011676;28;20084;-54
2024/02/09 09:32:20;;;;;;;7.97;6.63;;;24.50;75.00;;;;;;5014291;28;20034;-57
2024/02/09 09:34:46;;;;;;;11.23;6.45;;;25.70;76.60;;;;;;5026215;28;20038;-54
2024/02/09 09:37:12;;;;;;;8.18;5.50;;;;;;;;;;5013994;28;20026;-52
2024/02/09 09:39:38;;;;;;;8.80;7.72;;;26.20;96.20;;;;;;5013826;28;20057;-52
2024/02/09 09:42:05;;;;;;;9.85;6.57;;;25.50;73.20;;;;;;5013697;28;20470;-56
2024/02/09 09:44:32;;;;;;;9.38;6.72;;;25.60;73.70;;;;;;5013930;28;20481;-56
2024/02/09 09:46:58;;;;;;;10.00;6.40;;;24.60;73.80;;;;;;5013810;28;20088;-53
2024/02/09 09:49:28;;;;;;;10.63;8.10;;;25.10;74.50;;;;;;5013612;28;20025;-54
2024/02/09 09:51:58;;;;;;;12.15;9.10;;;;;;;;;;5011484;28;20037;-54
2024/02/09 09:54:28;;;;;;;10.30;7.80;;;;;;;;;;5013808;28;20469;-54
2024/02/09 09:56:55;;;;;;;6.72;5.50;;;28.30;73.60;;;;;;5014364;28;20044;-54
2024/02/09 09:59:21;;;;;;;6.78;5.25;;;;;;;;;;5014563;28;20026;-54
2024/02/09 10:01:48;;;;;;;6.43;4.63;;;28.20;71.20;;;;;;5014343;28;20042;-54
2024/02/09 10:04:15;;;;;;;6.10;4.28;;;26.80;70.90;;;;;;5014132;28;20038;-54
2024/02/09 10:06:42;;;;;;;5.93;4.07;;;26.20;81.90;;;;;;5028671;28;20044;-54
2024/02/09 10:09:08;;;;;;;7.45;4.20;;;25.70;88.20;;;;;;5013520;28;20057;-54
2024/02/09 10:11:38;;;;;;;4.57;4.18;;;25.60;70.90;;;;;;5014180;28;20040;-54
2024/02/09 10:14:14;;;;;;;11.27;7.72;;;;;;;;;;5013856;28;20474;-54
2024/02/09 10:16:41;;;;;;;5.80;3.83;;;;;;;;;;5012880;28;20036;-54
2024/02/09 10:19:08;;;;;;;4.72;3.40;;;;;;;;;;5013791;28;20113;-53
2024/02/09 10:21:34;;;;;;;7.32;4.28;;;28.30;67.80;;;;;;5013528;28;20042;-54
2024/02/09 10:24:00;;;;;;;11.57;5.38;;;28.30;68.20;;;;;;5013747;28;20038;-55
2024/02/09 10:26:26;;;;;;;7.70;3.47;;;28.10;68.00;;;;;;5013796;28;20358;-55
2024/02/09 10:28:53;;;;;;;8.55;3.53;;;28.00;67.90;;;;;;5012719;28;20033;-55
2024/02/09 10:31:22;;;;;;;6.90;4.90;;;28.50;67.90;;;;;;5013721;28;20057;-55
2024/02/09 10:33:50;;;;;;;8.85;3.92;;;28.30;67.50;;;;;;5012217;28;20033;-56
2024/02/09 10:36:16;;;;;;;5.90;3.65;;;28.70;67.70;;;;;;5013237;28;20535;-55
2024/02/09 10:38:43;;;;;;;7.18;4.30;;;27.70;66.80;;;;;;5013665;28;20026;-55
2024/02/09 10:41:12;;;;;;;7.88;4.90;;;27.90;67.80;;;;;;5013493;28;20039;-55
2024/02/09 10:43:41;;;;;;;9.85;4.47;;;28.00;68.40;;;;;;5013709;28;20026;-55
2024/02/09 10:46:08;;;;;;;4.90;4.20;;;28.90;67.60;;;;;;4992554;28;20390;-55
2024/02/09 10:48:35;;;;;;;11.32;5.10;;;;;;;;;;5008723;28;20486;-55
2024/02/09 10:51:05;;;;;;;6.40;3.80;;;29.30;67.60;;;;;;4994023;28;20483;-54
2024/02/09 10:53:35;;;;;;;8.65;5.88;;;29.50;66.70;;;;;;4992259;28;20046;-55
2024/02/09 10:56:07;;;;;;;17.85;5.80;;;29.60;66.90;;;;;;5008471;28;20042;-55
2024/02/09 10:58:37;;;;;;;19.33;5.82;;;29.80;66.70;;;;;;4992208;28;20049;-55
2024/02/09 11:01:04;;;;;;;7.10;3.20;;;30.40;66.40;;;;;;4993704;28;20061;-55
2024/02/09 11:03:30;;;;;;;11.43;3.80;;;;;;;;;;4993954;28;20093;-55
2024/02/09 11:05:57;;;;;;;7.53;2.80;;;30.20;65.60;;;;;;4993876;28;20434;-55
2024/02/09 11:08:24;;;;;;;7.82;3.88;;;30.00;65.50;;;;;;5003904;28;20054;-55
2024/02/09 11:11:02;;;;;;;11.70;6.03;;;28.00;65.40;;;;;;5013342;28;20371;-55
2024/02/09 11:13:28;;;;;;;15.25;4.43;;;27.20;67.40;;;;;;5027359;28;20042;-55
2024/02/09 11:15:58;;;;;;;12.50;4.85;;;27.20;67.10;;;;;;5027464;28;20509;-55
2024/02/09 11:18:36;;;;;;;10.35;5.25;;;26.90;67.60;;;;;;5012485;28;20026;-55
2024/02/09 11:21:11;;;;;;;13.13;5.85;;;26.50;67.70;;;;;;5032946;28;20042;-55
2024/02/09 11:23:40;;;;;;;13.13;5.68;;;26.20;67.70;;;;;;5034882;28;20135;-55
2024/02/09 11:26:16;;;;;;;26.10;12.43;;;25.90;67.70;;;;;;5034794;28;20037;-55
2024/02/09 11:28:42;;;;;;;33.08;10.52;;;25.70;68.40;;;;;;5034778;28;20031;-55
2024/02/09 11:31:10;;;;;;;21.65;8.80;;;25.40;68.90;;;;;;5034618;28;20052;-56
2024/02/09 11:33:37;;;;;;;17.58;9.82;;;25.10;68.70;;;;;;5018048;28;20037;-55
2024/02/09 11:36:04;;;;;;;6.53;3.97;;;24.60;68.90;;;;;;5034728;28;20033;-55
2024/02/09 11:38:29;;;;;;;10.55;3.40;;;24.50;69.40;;;;;;5034437;28;20037;-55
2024/02/09 11:40:57;;;;;;;13.88;7.07;;;24.20;69.30;;;;;;5034293;28;20034;-55
2024/02/09 11:43:28;;;;;;;16.60;4.00;;;24.30;69.90;;;;;;5034501;28;20034;-55
2024/02/09 11:45:54;;;;;;;8.77;4.05;;;23.70;70.20;;;;;;5034485;28;20079;-55
2024/02/09 11:48:21;;;;;;;6.38;3.17;;;;;;;;;;5033299;28;20029;-55
2024/02/09 11:50:47;;;;;;;5.65;2.85;;;23.00;74.70;;;;;;5033054;28;20087;-55
2024/02/09 11:53:13;;;;;;;4.88;3.10;;;22.30;72.30;;;;;;5015436;28;20405;-55
2024/02/09 11:55:40;;;;;;;4.95;2.80;;;21.90;72.80;;;;;;5015368;28;20030;-55
2024/02/09 11:58:08;;;;;;;7.65;2.80;;;21.90;73.40;;;;;;5015484;28;20029;-55
2024/02/09 12:00:35;;;;;;;7.13;3.20;;;21.70;80.80;;;;;;5015265;28;20125;-55
2024/02/09 12:03:01;;;;;;;7.20;4.88;;;21.30;91.40;;;;;;5029414;28;20049;-55
2024/02/09 12:05:27;;;;;;;9.55;5.28;;;21.20;76.40;;;;;;5015205;28;20026;-55
2024/02/09 12:07:53;;;;;;;7.20;4.40;;;21.10;76.60;;;;;;5015044;28;20539;-55
2024/02/09 12:10:20;;;;;;;9.02;5.68;;;21.20;77.70;;;;;;5015108;28;20059;-55
2024/02/09 12:12:49;;;;;;;10.57;5.88;;;21.30;78.10;;;;;;5015169;28;20029;-55
2024/02/09 12:15:19;;;;;;;9.70;5.32;;;21.20;78.80;;;;;;5012993;28;20053;-55
2024/02/09 12:17:48;;;;;;;9.88;5.55;;;21.10;79.40;;;;;;5015056;28;20037;-55
2024/02/09 12:20:14;;;;;;;11.55;6.82;;;21.10;79.60;;;;;;5015012;28;20025;-56
2024/02/09 12:22:41;;;;;;;11.38;6.82;;;21.00;80.40;;;;;;5014578;28;20113;-55
2024/02/09 12:25:13;;;;;;;9.43;4.78;;;20.90;81.70;;;;;;5014955;28;20058;-55
2024/02/09 12:27:39;;;;;;;;;;;20.80;81.50;;;;;;5028962;28;20145;-55
2024/02/09 12:30:09;;;;;;;6.88;5.40;;;20.90;81.10;;;;;;5014874;28;20269;-55
2024/02/09 12:32:36;;;;;;;8.48;5.25;;;21.00;81.00;;;;;;5014642;28;20563;-55
2024/02/09 12:35:02;;;;;;;7.30;5.10;;;21.00;81.00;;;;;;5014730;28;20139;-55
2024/02/09 12:37:28;;;;;;;9.38;5.93;;;21.00;81.10;;;;;;5031990;28;20137;-55
2024/02/09 12:39:53;;;;;;;19.30;12.13;;;20.90;81.50;;;;;;5032101;28;20143;-55
2024/02/09 12:42:22;;;;;;;16.45;7.72;;;20.60;81.40;;;;;;5031966;28;20520;-55
2024/02/09 12:44:51;;;;;;;13.00;6.80;;;20.40;81.70;;;;;;5032024;28;20052;-55
2024/02/09 12:47:17;;;;;;;15.88;9.63;;;20.50;82.00;;;;;;5031882;28;20090;-55
2024/02/09 12:49:43;;;;;;;12.13;6.80;;;20.50;91.50;;;;;;5031955;28;20033;-55
2024/02/09 12:52:14;;;;;;;15.00;9.68;;;20.60;90.40;;;;;;5031816;28;20042;-55
2024/02/09 12:54:43;;;;;;;15.90;9.88;;;20.70;90.30;;;;;;5031740;28;20057;-55
2024/02/09 12:57:10;;;;;;;18.48;12.32;;;20.60;90.30;;;;;;5031802;28;20131;-55
2024/02/09 12:59:37;;;;;;;15.15;10.60;;;;;;;;;;5031732;28;20036;-55
2024/02/09 13:02:10;;;;;;;19.88;10.93;;;20.40;84.20;;;;;;5031610;28;20053;-55
2024/02/09 13:04:39;;;;;;;19.38;10.95;;;20.40;85.30;;;;;;5031495;28;20045;-56
2024/02/09 13:07:06;;;;;;;16.40;9.98;;;20.30;84.00;;;;;;5031283;28;20068;-55
2024/02/09 13:09:35;;;;;;;24.00;10.52;;;20.20;92.30;;;;;;5008112;28;20054;-56
2024/02/09 13:12:02;;;;;;;13.00;9.18;;;19.90;83.90;;;;;;4997399;28;20026;-57
2024/02/09 13:14:28;;;;;;;32.75;19.60;;;;;;;;;;5011518;28;20046;-56
2024/02/09 13:16:54;;;;;;;46.92;25.75;;;19.80;83.70;;;;;;5011400;28;20061;-56
2024/02/09 13:19:20;;;;;;;34.53;20.40;;;19.80;84.70;;;;;;5011406;28;20068;-56
2024/02/09 13:21:49;;;;;;;36.08;20.80;;;19.60;85.00;;;;;;5011499;28;20066;-56
2024/02/09 13:24:15;;;;;;;74.72;37.80;;;19.60;85.20;;;;;;5011362;28;20199;-56
2024/02/09 13:26:41;;;;;;;44.53;28.30;;;19.60;85.70;;;;;;5010057;28;20452;-56
2024/02/09 13:29:07;;;;;;;40.95;25.33;;;19.60;85.50;;;;;;5012549;28;20159;-56
2024/02/09 13:31:34;;;;;;;48.03;29.95;;;19.60;85.30;;;;;;5014424;28;20031;-54
2024/02/09 13:34:00;;;;;;;52.22;32.63;;;19.90;85.20;;;;;;5030887;28;20120;-56
2024/02/09 13:36:26;;;;;;;32.47;23.00;;;20.20;85.20;;;;;;5030544;28;20025;-55
2024/02/09 13:38:53;;;;;;;27.52;16.92;;;20.30;85.10;;;;;;5014054;28;20053;-54
2024/02/09 13:41:19;;;;;;;38.53;20.23;;;20.30;85.20;;;;;;5011031;28;20493;-57
2024/02/09 13:43:45;;;;;;;17.23;9.00;;;20.60;85.30;;;;;;5010363;28;20125;-55
2024/02/09 13:46:12;;;;;;;26.77;13.60;;;20.50;85.00;;;;;;4996944;28;20088;-55
2024/02/09 13:48:38;;;;;;;17.33;9.30;;;20.30;84.80;;;;;;4993735;28;20038;-55
2024/02/09 13:51:07;;;;;;;13.55;8.80;;;20.50;84.80;;;;;;4991636;28;20036;-55
2024/02/09 13:53:32;;;;;;;10.85;6.78;;;20.60;84.50;;;;;;4993738;28;20594;-55
2024/02/09 13:55:58;;;;;;;7.97;5.55;;;20.40;84.80;;;;;;4993773;28;20041;-55
2024/02/09 13:58:26;;;;;;;13.77;8.95;;;20.50;84.00;;;;;;4991535;28;20038;-56
2024/02/09 14:00:52;;;;;;;13.85;7.13;;;20.60;81.80;;;;;;4993519;28;20092;-55
2024/02/09 14:03:19;;;;;;;10.95;5.97;;;20.80;80.30;;;;;;4993502;28;20026;-55
2024/02/09 14:05:46;;;;;;;17.77;8.18;;;21.10;79.60;;;;;;4993391;28;20041;-55
2024/02/09 14:08:11;;;;;;;18.77;11.73;;;21.20;78.80;;;;;;4993261;28;20054;-55
2024/02/09 14:10:40;;;;;;;26.75;13.23;;;21.00;77.20;;;;;;4993410;28;20026;-55
2024/02/09 14:13:06;;;;;;;47.92;33.17;;;21.00;77.30;;;;;;4993360;28;20049;-55
2024/02/09 14:15:36;;;;;;;29.17;21.17;;;21.10;77.30;;;;;;5010455;28;20046;-57
2024/02/09 14:18:04;;;;;;;25.70;12.57;;;21.10;77.60;;;;;;5010639;28;20739;-55
2024/02/09 14:20:30;;;;;;;20.00;8.82;;;21.10;77.70;;;;;;5010300;28;20591;-56
2024/02/09 14:22:58;;;;;;;33.70;14.57;;;21.10;77.70;;;;;;5010437;28;20104;-55
2024/02/09 14:25:23;;;;;;;21.48;11.60;;;21.00;77.30;;;;;;5010603;28;20081;-55
2024/02/09 14:27:50;;;;;;;13.38;7.03;;;20.80;77.00;;;;;;5010233;28;20038;-55
2024/02/09 14:30:18;;;;;;;22.83;10.10;;;20.70;76.80;;;;;;5010229;28;20073;-55
2024/02/09 14:32:44;;;;;;;9.93;6.25;;;20.70;77.40;;;;;;5010055;28;20033;-55
2024/02/09 14:35:10;;;;;;;7.97;5.22;;;20.60;77.50;;;;;;5010231;28;20552;-55
2024/02/09 14:37:36;;;;;;;12.15;5.43;;;20.60;77.80;;;;;;5010256;28;20058;-54
2024/02/09 14:40:03;;;;;;;9.50;5.57;;;20.50;78.10;;;;;;5010219;28;20567;-55